Converse, Indiana
Current Conditions -  °F | °C
As of 2:15 PM on Monday 22 Dec 2014 (Local Time) from KOKK Reporting Station
Overcast Overcast  
Wind Chill: 30°   Ceiling: 700
Heat Index: 37°   Visibility: 5mi
Dew Point: 34°   Wind: 10mph
Humidity: 87%   Direction: 120°ESE
Pressure: 29.81"   Gusts: NA
Location:  40.58°N, 85.87°W
Report Text: KOKK 221915Z AUTO 12009KT 5SM OVC007 03/01 A2981 RMK AO1
Loading
Personal Weather Stations






























Interactive Weather Map New forecast layout! Learn more

10-Day Weather Forecast

Advertisements
Track Severe Weather on mobile